Terminal Aerodrome Forecast
Issued by NWS Sterling, VA

Current Version | Previous Version | Graphics & Text | Print | Product List | Glossary On
Versions: 1 2 3 4 5 6 7 8 9 10 11 12 13 14 15 16 17 18 19 20 21
961
FTUS41 KLWX 072202 AAA
TAFDCA
TAF AMD
KDCA 072202Z 0722/0818 32007KT P6SM FEW200
     FM080900 00000KT P6SM BKN030
     FM081600 28006G16KT P6SM BKN050=

USA.gov is the U.S. government's official web portal to all federal, state and local government web resources and services.